sensor_id;sensor_type;location;lat;lon;timestamp;P1;durP1;ratioP1;P2;durP2;ratioP2
22176;SDS011;11254;50.098;8.726;2023-08-17T00:00:10;7.22;;;2.90;;
22176;SDS011;11254;50.098;8.726;2023-08-17T00:02:40;7.03;;;3.38;;
22176;SDS011;11254;50.098;8.726;2023-08-17T00:05:08;7.13;;;2.90;;
22176;SDS011;11254;50.098;8.726;2023-08-17T00:07:37;6.30;;;2.88;;
22176;SDS011;11254;50.098;8.726;2023-08-17T00:10:05;5.78;;;3.00;;
22176;SDS011;11254;50.098;8.726;2023-08-17T00:12:34;4.82;;;2.60;;
22176;SDS011;11254;50.098;8.726;2023-08-17T00:15:02;5.90;;;2.90;;
22176;SDS011;11254;50.098;8.726;2023-08-17T00:17:32;6.22;;;2.88;;
22176;SDS011;11254;50.098;8.726;2023-08-17T00:20:01;5.65;;;2.90;;
22176;SDS011;11254;50.098;8.726;2023-08-17T00:22:31;5.72;;;2.95;;
22176;SDS011;11254;50.098;8.726;2023-08-17T00:24:59;6.07;;;3.10;;
22176;SDS011;11254;50.098;8.726;2023-08-17T00:27:31;5.13;;;2.53;;
22176;SDS011;11254;50.098;8.726;2023-08-17T00:30:00;6.05;;;3.08;;
22176;SDS011;11254;50.098;8.726;2023-08-17T00:32:28;6.40;;;3.05;;
22176;SDS011;11254;50.098;8.726;2023-08-17T00:34:58;7.82;;;3.00;;
22176;SDS011;11254;50.098;8.726;2023-08-17T00:37:27;8.60;;;3.00;;
22176;SDS011;11254;50.098;8.726;2023-08-17T00:39:56;5.82;;;3.08;;
22176;SDS011;11254;50.098;8.726;2023-08-17T00:42:24;7.25;;;2.97;;
22176;SDS011;11254;50.098;8.726;2023-08-17T00:44:52;6.00;;;3.10;;
22176;SDS011;11254;50.098;8.726;2023-08-17T00:47:21;5.78;;;3.00;;
22176;SDS011;11254;50.098;8.726;2023-08-17T00:49:50;7.72;;;3.53;;
22176;SDS011;11254;50.098;8.726;2023-08-17T00:52:19;6.38;;;2.97;;
22176;SDS011;11254;50.098;8.726;2023-08-17T00:54:48;7.90;;;3.72;;
22176;SDS011;11254;50.098;8.726;2023-08-17T00:57:17;8.23;;;3.38;;
22176;SDS011;11254;50.098;8.726;2023-08-17T00:59:46;8.73;;;3.10;;
22176;SDS011;11254;50.098;8.726;2023-08-17T01:02:29;8.02;;;3.20;;
22176;SDS011;11254;50.098;8.726;2023-08-17T01:04:59;7.90;;;3.22;;
22176;SDS011;11254;50.098;8.726;2023-08-17T01:07:29;8.68;;;3.15;;
22176;SDS011;11254;50.098;8.726;2023-08-17T01:09:59;9.60;;;3.33;;
22176;SDS011;11254;50.098;8.726;2023-08-17T01:12:29;6.10;;;2.83;;
22176;SDS011;11254;50.098;8.726;2023-08-17T01:15:00;6.72;;;2.80;;
22176;SDS011;11254;50.098;8.726;2023-08-17T01:17:31;6.20;;;3.42;;
22176;SDS011;11254;50.098;8.726;2023-08-17T01:20:01;7.82;;;3.65;;
22176;SDS011;11254;50.098;8.726;2023-08-17T01:22:33;6.85;;;3.60;;
22176;SDS011;11254;50.098;8.726;2023-08-17T01:25:05;7.38;;;3.85;;
22176;SDS011;11254;50.098;8.726;2023-08-17T01:27:36;6.05;;;3.22;;
22176;SDS011;11254;50.098;8.726;2023-08-17T01:30:05;4.50;;;2.72;;
22176;SDS011;11254;50.098;8.726;2023-08-17T01:32:37;9.07;;;3.45;;
22176;SDS011;11254;50.098;8.726;2023-08-17T01:35:09;6.82;;;3.30;;
22176;SDS011;11254;50.098;8.726;2023-08-17T01:37:40;7.70;;;3.58;;
22176;SDS011;11254;50.098;8.726;2023-08-17T01:40:11;8.45;;;3.80;;
22176;SDS011;11254;50.098;8.726;2023-08-17T01:42:41;7.15;;;3.60;;
22176;SDS011;11254;50.098;8.726;2023-08-17T01:45:10;6.00;;;3.28;;
22176;SDS011;11254;50.098;8.726;2023-08-17T01:47:39;8.93;;;4.25;;
22176;SDS011;11254;50.098;8.726;2023-08-17T01:50:08;6.50;;;3.95;;
22176;SDS011;11254;50.098;8.726;2023-08-17T01:52:36;7.72;;;3.95;;
22176;SDS011;11254;50.098;8.726;2023-08-17T01:55:05;8.52;;;4.38;;
22176;SDS011;11254;50.098;8.726;2023-08-17T01:57:36;8.15;;;4.22;;
22176;SDS011;11254;50.098;8.726;2023-08-17T02:00:05;9.82;;;4.60;;
22176;SDS011;11254;50.098;8.726;2023-08-17T02:02:39;7.60;;;4.32;;
22176;SDS011;11254;50.098;8.726;2023-08-17T02:05:10;9.10;;;4.70;;
22176;SDS011;11254;50.098;8.726;2023-08-17T02:07:38;9.95;;;4.70;;
22176;SDS011;11254;50.098;8.726;2023-08-17T02:10:07;8.90;;;4.47;;
22176;SDS011;11254;50.098;8.726;2023-08-17T02:12:37;7.35;;;4.05;;
22176;SDS011;11254;50.098;8.726;2023-08-17T02:15:06;9.45;;;4.57;;
22176;SDS011;11254;50.098;8.726;2023-08-17T02:17:35;9.48;;;4.93;;
22176;SDS011;11254;50.098;8.726;2023-08-17T02:20:03;9.80;;;5.20;;
22176;SDS011;11254;50.098;8.726;2023-08-17T02:22:32;8.23;;;4.80;;
22176;SDS011;11254;50.098;8.726;2023-08-17T02:25:00;12.32;;;5.15;;
22176;SDS011;11254;50.098;8.726;2023-08-17T02:27:29;8.40;;;5.15;;
22176;SDS011;11254;50.098;8.726;2023-08-17T02:30:00;10.70;;;5.32;;
22176;SDS011;11254;50.098;8.726;2023-08-17T02:32:29;11.63;;;5.60;;
22176;SDS011;11254;50.098;8.726;2023-08-17T02:34:58;11.75;;;5.35;;
22176;SDS011;11254;50.098;8.726;2023-08-17T02:37:26;11.48;;;5.07;;
22176;SDS011;11254;50.098;8.726;2023-08-17T02:39:54;8.68;;;5.18;;
22176;SDS011;11254;50.098;8.726;2023-08-17T02:42:23;11.23;;;5.38;;
22176;SDS011;11254;50.098;8.726;2023-08-17T02:44:53;13.52;;;5.43;;
22176;SDS011;11254;50.098;8.726;2023-08-17T02:47:22;9.85;;;5.40;;
22176;SDS011;11254;50.098;8.726;2023-08-17T02:49:52;10.07;;;5.22;;
22176;SDS011;11254;50.098;8.726;2023-08-17T02:52:20;12.32;;;5.95;;
22176;SDS011;11254;50.098;8.726;2023-08-17T02:54:49;9.65;;;5.35;;
22176;SDS011;11254;50.098;8.726;2023-08-17T02:57:17;10.32;;;5.40;;
22176;SDS011;11254;50.098;8.726;2023-08-17T02:59:45;11.07;;;5.15;;
22176;SDS011;11254;50.098;8.726;2023-08-17T03:02:14;10.93;;;5.65;;
22176;SDS011;11254;50.098;8.726;2023-08-17T03:04:43;9.43;;;5.30;;
22176;SDS011;11254;50.098;8.726;2023-08-17T03:07:12;11.00;;;5.93;;
22176;SDS011;11254;50.098;8.726;2023-08-17T03:09:40;10.95;;;6.45;;
22176;SDS011;11254;50.098;8.726;2023-08-17T03:12:08;18.80;;;7.25;;
22176;SDS011;11254;50.098;8.726;2023-08-17T03:14:37;13.05;;;6.50;;
22176;SDS011;11254;50.098;8.726;2023-08-17T03:17:05;11.80;;;5.88;;
22176;SDS011;11254;50.098;8.726;2023-08-17T03:19:34;11.00;;;6.30;;
22176;SDS011;11254;50.098;8.726;2023-08-17T03:22:03;11.55;;;6.20;;
22176;SDS011;11254;50.098;8.726;2023-08-17T03:24:32;11.18;;;5.88;;
22176;SDS011;11254;50.098;8.726;2023-08-17T03:27:00;13.48;;;7.32;;
22176;SDS011;11254;50.098;8.726;2023-08-17T03:29:29;12.32;;;7.10;;
22176;SDS011;11254;50.098;8.726;2023-08-17T03:31:58;14.27;;;6.57;;
22176;SDS011;11254;50.098;8.726;2023-08-17T03:34:26;12.80;;;6.53;;
22176;SDS011;11254;50.098;8.726;2023-08-17T03:36:54;11.98;;;6.75;;
22176;SDS011;11254;50.098;8.726;2023-08-17T03:39:25;14.27;;;6.72;;
22176;SDS011;11254;50.098;8.726;2023-08-17T03:41:53;10.73;;;6.68;;
22176;SDS011;11254;50.098;8.726;2023-08-17T03:44:21;10.82;;;6.53;;
22176;SDS011;11254;50.098;8.726;2023-08-17T03:46:50;11.65;;;6.82;;
22176;SDS011;11254;50.098;8.726;2023-08-17T03:49:18;13.98;;;6.82;;
22176;SDS011;11254;50.098;8.726;2023-08-17T03:51:46;11.73;;;6.50;;
22176;SDS011;11254;50.098;8.726;2023-08-17T03:54:16;13.15;;;6.10;;
22176;SDS011;11254;50.098;8.726;2023-08-17T03:56:47;15.00;;;6.85;;
22176;SDS011;11254;50.098;8.726;2023-08-17T03:59:16;11.30;;;6.32;;
22176;SDS011;11254;50.098;8.726;2023-08-17T04:01:44;11.38;;;7.13;;
22176;SDS011;11254;50.098;8.726;2023-08-17T04:04:14;12.18;;;6.57;;
22176;SDS011;11254;50.098;8.726;2023-08-17T04:06:43;14.32;;;7.07;;
22176;SDS011;11254;50.098;8.726;2023-08-17T04:09:11;11.35;;;6.38;;
22176;SDS011;11254;50.098;8.726;2023-08-17T04:11:39;10.45;;;6.32;;
22176;SDS011;11254;50.098;8.726;2023-08-17T04:14:09;10.95;;;6.53;;
22176;SDS011;11254;50.098;8.726;2023-08-17T04:16:39;10.73;;;6.10;;
22176;SDS011;11254;50.098;8.726;2023-08-17T04:19:07;9.77;;;5.40;;
22176;SDS011;11254;50.098;8.726;2023-08-17T04:21:36;11.15;;;6.57;;
22176;SDS011;11254;50.098;8.726;2023-08-17T04:24:05;12.80;;;6.53;;
22176;SDS011;11254;50.098;8.726;2023-08-17T04:26:33;11.70;;;6.13;;
22176;SDS011;11254;50.098;8.726;2023-08-17T04:29:02;14.02;;;7.25;;
22176;SDS011;11254;50.098;8.726;2023-08-17T04:31:32;11.50;;;6.50;;
22176;SDS011;11254;50.098;8.726;2023-08-17T04:34:02;12.70;;;6.63;;
22176;SDS011;11254;50.098;8.726;2023-08-17T04:36:31;14.90;;;6.53;;
22176;SDS011;11254;50.098;8.726;2023-08-17T04:38:59;10.75;;;5.82;;
22176;SDS011;11254;50.098;8.726;2023-08-17T04:41:28;10.60;;;6.57;;
22176;SDS011;11254;50.098;8.726;2023-08-17T04:43:56;13.45;;;6.80;;
22176;SDS011;11254;50.098;8.726;2023-08-17T04:46:24;10.05;;;5.95;;
22176;SDS011;11254;50.098;8.726;2023-08-17T04:48:54;10.63;;;6.10;;
22176;SDS011;11254;50.098;8.726;2023-08-17T04:51:23;9.85;;;6.00;;
22176;SDS011;11254;50.098;8.726;2023-08-17T04:53:51;10.38;;;6.93;;
22176;SDS011;11254;50.098;8.726;2023-08-17T04:56:20;14.63;;;7.55;;
22176;SDS011;11254;50.098;8.726;2023-08-17T04:58:48;12.15;;;6.95;;
22176;SDS011;11254;50.098;8.726;2023-08-17T05:01:17;13.98;;;7.00;;
22176;SDS011;11254;50.098;8.726;2023-08-17T05:03:46;11.88;;;6.85;;
22176;SDS011;11254;50.098;8.726;2023-08-17T05:06:16;12.68;;;5.82;;
22176;SDS011;11254;50.098;8.726;2023-08-17T05:08:45;8.98;;;5.40;;
22176;SDS011;11254;50.098;8.726;2023-08-17T05:11:13;10.20;;;4.35;;
22176;SDS011;11254;50.098;8.726;2023-08-17T05:13:42;9.68;;;4.70;;
22176;SDS011;11254;50.098;8.726;2023-08-17T05:16:11;7.88;;;4.90;;
22176;SDS011;11254;50.098;8.726;2023-08-17T05:18:39;8.23;;;4.68;;
22176;SDS011;11254;50.098;8.726;2023-08-17T05:21:12;8.38;;;4.60;;
22176;SDS011;11254;50.098;8.726;2023-08-17T05:23:41;10.30;;;4.88;;
22176;SDS011;11254;50.098;8.726;2023-08-17T05:26:10;7.85;;;4.63;;
22176;SDS011;11254;50.098;8.726;2023-08-17T05:28:42;8.40;;;4.13;;
22176;SDS011;11254;50.098;8.726;2023-08-17T05:31:11;7.93;;;4.72;;
22176;SDS011;11254;50.098;8.726;2023-08-17T05:33:43;8.35;;;4.80;;
22176;SDS011;11254;50.098;8.726;2023-08-17T05:36:11;10.55;;;5.78;;
22176;SDS011;11254;50.098;8.726;2023-08-17T05:38:42;11.23;;;6.55;;
22176;SDS011;11254;50.098;8.726;2023-08-17T05:41:10;12.48;;;6.38;;
22176;SDS011;11254;50.098;8.726;2023-08-17T05:43:38;12.43;;;7.47;;
22176;SDS011;11254;50.098;8.726;2023-08-17T05:46:07;13.52;;;7.72;;
22176;SDS011;11254;50.098;8.726;2023-08-17T05:48:35;11.25;;;6.43;;
22176;SDS011;11254;50.098;8.726;2023-08-17T05:51:04;12.45;;;6.70;;
22176;SDS011;11254;50.098;8.726;2023-08-17T05:53:32;11.02;;;6.72;;
22176;SDS011;11254;50.098;8.726;2023-08-17T05:56:02;13.13;;;6.82;;
22176;SDS011;11254;50.098;8.726;2023-08-17T05:58:30;13.60;;;6.95;;
22176;SDS011;11254;50.098;8.726;2023-08-17T06:01:03;11.07;;;6.60;;
22176;SDS011;11254;50.098;8.726;2023-08-17T06:03:32;15.00;;;7.85;;
22176;SDS011;11254;50.098;8.726;2023-08-17T06:06:01;15.50;;;8.60;;
22176;SDS011;11254;50.098;8.726;2023-08-17T06:08:29;12.98;;;7.80;;
22176;SDS011;11254;50.098;8.726;2023-08-17T06:10:57;15.10;;;8.80;;
22176;SDS011;11254;50.098;8.726;2023-08-17T06:13:27;18.45;;;9.68;;
22176;SDS011;11254;50.098;8.726;2023-08-17T06:15:55;16.35;;;8.43;;
22176;SDS011;11254;50.098;8.726;2023-08-17T06:18:24;14.82;;;7.88;;
22176;SDS011;11254;50.098;8.726;2023-08-17T06:20:53;13.52;;;7.50;;
22176;SDS011;11254;50.098;8.726;2023-08-17T06:23:21;12.30;;;6.65;;
22176;SDS011;11254;50.098;8.726;2023-08-17T06:25:49;13.00;;;6.90;;
22176;SDS011;11254;50.098;8.726;2023-08-17T06:28:17;15.70;;;9.02;;
22176;SDS011;11254;50.098;8.726;2023-08-17T06:30:46;13.25;;;7.93;;
22176;SDS011;11254;50.098;8.726;2023-08-17T06:33:15;14.88;;;8.07;;
22176;SDS011;11254;50.098;8.726;2023-08-17T06:35:45;15.38;;;7.88;;
22176;SDS011;11254;50.098;8.726;2023-08-17T06:38:13;13.63;;;6.90;;
22176;SDS011;11254;50.098;8.726;2023-08-17T06:40:42;9.45;;;5.55;;
22176;SDS011;11254;50.098;8.726;2023-08-17T06:43:10;8.68;;;5.38;;
22176;SDS011;11254;50.098;8.726;2023-08-17T06:45:38;11.10;;;6.10;;
22176;SDS011;11254;50.098;8.726;2023-08-17T06:48:08;9.55;;;5.40;;
22176;SDS011;11254;50.098;8.726;2023-08-17T06:50:36;11.93;;;6.65;;
22176;SDS011;11254;50.098;8.726;2023-08-17T06:53:05;9.45;;;5.05;;
22176;SDS011;11254;50.098;8.726;2023-08-17T06:55:33;9.05;;;4.88;;
22176;SDS011;11254;50.098;8.726;2023-08-17T06:58:02;7.57;;;4.75;;
22176;SDS011;11254;50.098;8.726;2023-08-17T07:00:30;8.23;;;4.95;;
22176;SDS011;11254;50.098;8.726;2023-08-17T07:03:00;7.90;;;4.93;;
22176;SDS011;11254;50.098;8.726;2023-08-17T07:05:31;9.20;;;5.07;;
22176;SDS011;11254;50.098;8.726;2023-08-17T07:08:01;8.05;;;4.43;;
22176;SDS011;11254;50.098;8.726;2023-08-17T07:10:30;8.02;;;5.43;;
22176;SDS011;11254;50.098;8.726;2023-08-17T07:12:58;7.18;;;4.10;;
22176;SDS011;11254;50.098;8.726;2023-08-17T07:15:29;8.23;;;4.38;;
22176;SDS011;11254;50.098;8.726;2023-08-17T07:17:57;7.95;;;3.88;;
22176;SDS011;11254;50.098;8.726;2023-08-17T07:20:26;7.68;;;4.13;;
22176;SDS011;11254;50.098;8.726;2023-08-17T07:22:56;6.55;;;3.30;;
22176;SDS011;11254;50.098;8.726;2023-08-17T07:25:24;5.88;;;3.20;;
22176;SDS011;11254;50.098;8.726;2023-08-17T07:27:53;5.55;;;3.40;;
22176;SDS011;11254;50.098;8.726;2023-08-17T07:30:21;4.38;;;2.83;;
22176;SDS011;11254;50.098;8.726;2023-08-17T07:32:50;7.53;;;3.10;;
22176;SDS011;11254;50.098;8.726;2023-08-17T07:35:18;6.55;;;3.10;;
22176;SDS011;11254;50.098;8.726;2023-08-17T07:37:47;6.70;;;3.00;;
22176;SDS011;11254;50.098;8.726;2023-08-17T07:40:30;5.10;;;2.83;;
22176;SDS011;11254;50.098;8.726;2023-08-17T07:42:59;6.32;;;3.13;;
22176;SDS011;11254;50.098;8.726;2023-08-17T07:45:28;8.95;;;5.03;;
22176;SDS011;11254;50.098;8.726;2023-08-17T07:47:56;8.48;;;4.63;;
22176;SDS011;11254;50.098;8.726;2023-08-17T07:50:24;8.80;;;4.00;;
22176;SDS011;11254;50.098;8.726;2023-08-17T07:52:53;6.45;;;3.25;;
22176;SDS011;11254;50.098;8.726;2023-08-17T07:55:21;4.65;;;2.97;;
22176;SDS011;11254;50.098;8.726;2023-08-17T07:57:51;5.97;;;3.75;;
22176;SDS011;11254;50.098;8.726;2023-08-17T08:00:21;7.22;;;4.40;;
22176;SDS011;11254;50.098;8.726;2023-08-17T08:02:53;6.55;;;3.20;;
22176;SDS011;11254;50.098;8.726;2023-08-17T08:05:26;7.13;;;3.10;;
22176;SDS011;11254;50.098;8.726;2023-08-17T08:07:58;5.13;;;3.10;;
22176;SDS011;11254;50.098;8.726;2023-08-17T08:10:29;9.20;;;5.68;;
22176;SDS011;11254;50.098;8.726;2023-08-17T08:13:03;9.18;;;6.78;;
22176;SDS011;11254;50.098;8.726;2023-08-17T08:15:33;8.27;;;4.93;;
22176;SDS011;11254;50.098;8.726;2023-08-17T08:18:02;5.30;;;2.83;;
22176;SDS011;11254;50.098;8.726;2023-08-17T08:20:31;6.05;;;3.28;;
22176;SDS011;11254;50.098;8.726;2023-08-17T08:23:00;7.88;;;3.55;;
22176;SDS011;11254;50.098;8.726;2023-08-17T08:25:31;6.18;;;4.38;;
22176;SDS011;11254;50.098;8.726;2023-08-17T08:28:04;6.10;;;3.70;;
22176;SDS011;11254;50.098;8.726;2023-08-17T08:30:34;5.72;;;2.60;;
22176;SDS011;11254;50.098;8.726;2023-08-17T08:33:03;4.50;;;2.28;;
22176;SDS011;11254;50.098;8.726;2023-08-17T08:35:34;5.97;;;3.15;;
22176;SDS011;11254;50.098;8.726;2023-08-17T08:38:09;5.90;;;3.13;;
22176;SDS011;11254;50.098;8.726;2023-08-17T08:40:39;4.70;;;2.80;;
22176;SDS011;11254;50.098;8.726;2023-08-17T08:43:13;5.90;;;2.80;;
22176;SDS011;11254;50.098;8.726;2023-08-17T08:45:46;5.03;;;2.47;;
22176;SDS011;11254;50.098;8.726;2023-08-17T08:48:18;5.22;;;2.67;;
22176;SDS011;11254;50.098;8.726;2023-08-17T08:50:49;5.57;;;2.60;;
22176;SDS011;11254;50.098;8.726;2023-08-17T08:53:31;4.65;;;2.00;;
22176;SDS011;11254;50.098;8.726;2023-08-17T08:56:07;6.13;;;2.30;;
22176;SDS011;11254;50.098;8.726;2023-08-17T08:58:42;4.63;;;2.75;;
22176;SDS011;11254;50.098;8.726;2023-08-17T09:01:13;6.03;;;2.10;;
22176;SDS011;11254;50.098;8.726;2023-08-17T09:03:50;4.65;;;2.17;;
22176;SDS011;11254;50.098;8.726;2023-08-17T09:06:25;6.20;;;2.88;;
22176;SDS011;11254;50.098;8.726;2023-08-17T09:08:54;4.47;;;2.40;;
22176;SDS011;11254;50.098;8.726;2023-08-17T09:11:26;4.45;;;2.30;;
22176;SDS011;11254;50.098;8.726;2023-08-17T09:14:05;3.83;;;1.98;;
22176;SDS011;11254;50.098;8.726;2023-08-17T09:16:38;5.03;;;2.13;;
22176;SDS011;11254;50.098;8.726;2023-08-17T09:19:09;4.10;;;2.30;;
22176;SDS011;11254;50.098;8.726;2023-08-17T09:21:45;5.60;;;2.88;;
22176;SDS011;11254;50.098;8.726;2023-08-17T09:24:17;5.25;;;1.98;;
22176;SDS011;11254;50.098;8.726;2023-08-17T09:26:47;4.90;;;2.28;;
22176;SDS011;11254;50.098;8.726;2023-08-17T09:29:23;4.05;;;2.33;;
22176;SDS011;11254;50.098;8.726;2023-08-17T09:31:55;3.97;;;1.80;;
22176;SDS011;11254;50.098;8.726;2023-08-17T09:34:30;3.85;;;1.95;;
22176;SDS011;11254;50.098;8.726;2023-08-17T09:37:08;3.70;;;1.80;;
22176;SDS011;11254;50.098;8.726;2023-08-17T09:39:43;4.55;;;1.98;;
22176;SDS011;11254;50.098;8.726;2023-08-17T09:42:16;5.10;;;2.30;;
22176;SDS011;11254;50.098;8.726;2023-08-17T09:44:49;4.57;;;2.30;;
22176;SDS011;11254;50.098;8.726;2023-08-17T09:47:21;4.18;;;1.98;;
22176;SDS011;11254;50.098;8.726;2023-08-17T09:49:50;4.82;;;2.13;;
22176;SDS011;11254;50.098;8.726;2023-08-17T09:52:24;3.33;;;1.73;;
22176;SDS011;11254;50.098;8.726;2023-08-17T09:55:03;3.08;;;1.75;;
22176;SDS011;11254;50.098;8.726;2023-08-17T09:57:40;7.45;;;1.98;;
22176;SDS011;11254;50.098;8.726;2023-08-17T10:00:13;2.92;;;1.40;;
22176;SDS011;11254;50.098;8.726;2023-08-17T10:02:47;3.90;;;1.90;;
22176;SDS011;11254;50.098;8.726;2023-08-17T10:05:38;5.78;;;2.13;;
22176;SDS011;11254;50.098;8.726;2023-08-17T10:08:17;4.05;;;2.15;;
22176;SDS011;11254;50.098;8.726;2023-08-17T10:10:49;4.88;;;2.00;;
22176;SDS011;11254;50.098;8.726;2023-08-17T10:13:30;6.40;;;2.10;;
22176;SDS011;11254;50.098;8.726;2023-08-17T10:16:16;3.35;;;1.50;;
22176;SDS011;11254;50.098;8.726;2023-08-17T10:18:58;7.25;;;2.10;;
22176;SDS011;11254;50.098;8.726;2023-08-17T10:21:37;4.60;;;1.98;;
22176;SDS011;11254;50.098;8.726;2023-08-17T10:24:08;3.70;;;1.67;;
22176;SDS011;11254;50.098;8.726;2023-08-17T10:26:37;5.15;;;1.83;;
22176;SDS011;11254;50.098;8.726;2023-08-17T10:29:06;5.03;;;1.98;;
22176;SDS011;11254;50.098;8.726;2023-08-17T10:31:44;3.83;;;1.90;;
22176;SDS011;11254;50.098;8.726;2023-08-17T10:34:26;5.05;;;1.70;;
22176;SDS011;11254;50.098;8.726;2023-08-17T10:37:08;3.92;;;1.67;;
22176;SDS011;11254;50.098;8.726;2023-08-17T10:39:44;3.33;;;1.60;;
22176;SDS011;11254;50.098;8.726;2023-08-17T10:42:29;4.70;;;2.40;;
22176;SDS011;11254;50.098;8.726;2023-08-17T10:47:53;4.25;;;2.05;;
22176;SDS011;11254;50.098;8.726;2023-08-17T10:50:34;5.43;;;1.98;;
22176;SDS011;11254;50.098;8.726;2023-08-17T10:53:11;4.30;;;2.00;;
22176;SDS011;11254;50.098;8.726;2023-08-17T10:55:44;5.03;;;1.85;;
22176;SDS011;11254;50.098;8.726;2023-08-17T10:58:19;4.72;;;1.95;;
22176;SDS011;11254;50.098;8.726;2023-08-17T11:00:48;3.90;;;2.00;;
22176;SDS011;11254;50.098;8.726;2023-08-17T11:03:28;3.45;;;1.98;;
22176;SDS011;11254;50.098;8.726;2023-08-17T11:05:57;6.15;;;2.35;;
22176;SDS011;11254;50.098;8.726;2023-08-17T11:08:32;4.40;;;2.10;;
22176;SDS011;11254;50.098;8.726;2023-08-17T11:11:09;6.25;;;2.42;;
22176;SDS011;11254;50.098;8.726;2023-08-17T11:13:40;4.13;;;2.42;;
22176;SDS011;11254;50.098;8.726;2023-08-17T11:16:09;3.95;;;2.17;;
22176;SDS011;11254;50.098;8.726;2023-08-17T11:18:43;4.90;;;2.08;;
22176;SDS011;11254;50.098;8.726;2023-08-17T11:21:13;5.70;;;2.13;;
22176;SDS011;11254;50.098;8.726;2023-08-17T11:23:49;3.60;;;2.00;;
22176;SDS011;11254;50.098;8.726;2023-08-17T11:26:28;3.35;;;1.98;;
22176;SDS011;11254;50.098;8.726;2023-08-17T11:29:04;5.32;;;2.00;;
22176;SDS011;11254;50.098;8.726;2023-08-17T11:31:39;3.72;;;1.88;;
22176;SDS011;11254;50.098;8.726;2023-08-17T11:34:15;3.97;;;2.00;;
22176;SDS011;11254;50.098;8.726;2023-08-17T11:36:44;5.70;;;2.25;;
22176;SDS011;11254;50.098;8.726;2023-08-17T11:39:18;4.95;;;2.42;;
22176;SDS011;11254;50.098;8.726;2023-08-17T11:41:53;4.82;;;2.10;;
22176;SDS011;11254;50.098;8.726;2023-08-17T11:44:28;3.22;;;1.92;;
22176;SDS011;11254;50.098;8.726;2023-08-17T11:46:59;3.67;;;2.30;;
22176;SDS011;11254;50.098;8.726;2023-08-17T11:49:33;3.83;;;2.10;;
22176;SDS011;11254;50.098;8.726;2023-08-17T11:52:16;6.03;;;2.65;;
22176;SDS011;11254;50.098;8.726;2023-08-17T11:54:55;5.80;;;2.80;;
22176;SDS011;11254;50.098;8.726;2023-08-17T11:57:30;4.65;;;2.03;;
22176;SDS011;11254;50.098;8.726;2023-08-17T12:00:09;6.43;;;2.17;;
22176;SDS011;11254;50.098;8.726;2023-08-17T12:02:43;6.25;;;2.47;;
22176;SDS011;11254;50.098;8.726;2023-08-17T12:05:27;5.28;;;2.38;;
22176;SDS011;11254;50.098;8.726;2023-08-17T12:08:04;4.05;;;2.10;;
22176;SDS011;11254;50.098;8.726;2023-08-17T12:10:38;5.00;;;2.65;;
22176;SDS011;11254;50.098;8.726;2023-08-17T12:13:15;5.35;;;2.22;;
22176;SDS011;11254;50.098;8.726;2023-08-17T12:15:48;3.40;;;2.03;;
22176;SDS011;11254;50.098;8.726;2023-08-17T12:18:21;4.38;;;2.33;;
22176;SDS011;11254;50.098;8.726;2023-08-17T12:20:53;7.05;;;2.50;;
22176;SDS011;11254;50.098;8.726;2023-08-17T12:23:25;6.63;;;2.20;;
22176;SDS011;11254;50.098;8.726;2023-08-17T12:25:56;3.67;;;1.90;;
22176;SDS011;11254;50.098;8.726;2023-08-17T12:28:27;6.18;;;2.30;;
22176;SDS011;11254;50.098;8.726;2023-08-17T12:30:59;5.15;;;1.90;;
22176;SDS011;11254;50.098;8.726;2023-08-17T12:33:28;4.88;;;2.10;;
22176;SDS011;11254;50.098;8.726;2023-08-17T12:36:00;4.03;;;2.10;;
22176;SDS011;11254;50.098;8.726;2023-08-17T12:38:37;3.33;;;1.90;;
22176;SDS011;11254;50.098;8.726;2023-08-17T12:41:17;4.93;;;1.80;;
22176;SDS011;11254;50.098;8.726;2023-08-17T12:43:48;3.65;;;2.05;;
22176;SDS011;11254;50.098;8.726;2023-08-17T12:46:21;3.50;;;1.85;;
22176;SDS011;11254;50.098;8.726;2023-08-17T12:48:53;3.63;;;1.98;;
22176;SDS011;11254;50.098;8.726;2023-08-17T12:51:31;3.40;;;1.73;;
22176;SDS011;11254;50.098;8.726;2023-08-17T12:54:15;6.68;;;1.95;;
22176;SDS011;11254;50.098;8.726;2023-08-17T12:56:51;5.88;;;2.17;;
22176;SDS011;11254;50.098;8.726;2023-08-17T12:59:27;4.25;;;2.05;;
22176;SDS011;11254;50.098;8.726;2023-08-17T13:01:57;4.95;;;1.90;;
22176;SDS011;11254;50.098;8.726;2023-08-17T13:04:26;3.30;;;1.80;;
22176;SDS011;11254;50.098;8.726;2023-08-17T13:07:00;4.95;;;2.20;;
22176;SDS011;11254;50.098;8.726;2023-08-17T13:09:40;4.25;;;1.70;;
22176;SDS011;11254;50.098;8.726;2023-08-17T13:12:16;3.72;;;1.75;;
22176;SDS011;11254;50.098;8.726;2023-08-17T13:14:48;4.05;;;1.85;;
22176;SDS011;11254;50.098;8.726;2023-08-17T13:17:26;4.47;;;2.03;;
22176;SDS011;11254;50.098;8.726;2023-08-17T13:20:02;6.97;;;2.40;;
22176;SDS011;11254;50.098;8.726;2023-08-17T13:22:35;3.33;;;1.73;;
22176;SDS011;11254;50.098;8.726;2023-08-17T13:25:06;4.15;;;2.10;;
22176;SDS011;11254;50.098;8.726;2023-08-17T13:27:39;4.53;;;1.85;;
22176;SDS011;11254;50.098;8.726;2023-08-17T13:30:11;4.68;;;2.00;;
22176;SDS011;11254;50.098;8.726;2023-08-17T13:32:44;4.32;;;2.00;;
22176;SDS011;11254;50.098;8.726;2023-08-17T13:35:17;3.90;;;2.10;;
22176;SDS011;11254;50.098;8.726;2023-08-17T13:37:57;3.95;;;2.20;;
22176;SDS011;11254;50.098;8.726;2023-08-17T13:40:30;3.90;;;2.03;;
22176;SDS011;11254;50.098;8.726;2023-08-17T13:43:04;4.10;;;1.90;;
22176;SDS011;11254;50.098;8.726;2023-08-17T13:45:41;5.18;;;2.00;;
22176;SDS011;11254;50.098;8.726;2023-08-17T13:48:12;4.28;;;2.15;;
22176;SDS011;11254;50.098;8.726;2023-08-17T13:50:43;4.20;;;2.28;;
22176;SDS011;11254;50.098;8.726;2023-08-17T13:53:20;4.80;;;2.20;;
22176;SDS011;11254;50.098;8.726;2023-08-17T13:55:49;5.57;;;2.53;;
22176;SDS011;11254;50.098;8.726;2023-08-17T13:58:20;5.25;;;2.85;;
22176;SDS011;11254;50.098;8.726;2023-08-17T14:00:49;4.40;;;2.20;;
22176;SDS011;11254;50.098;8.726;2023-08-17T14:03:24;5.25;;;2.47;;
22176;SDS011;11254;50.098;8.726;2023-08-17T14:06:01;5.25;;;2.60;;
22176;SDS011;11254;50.098;8.726;2023-08-17T14:08:41;5.15;;;2.78;;
22176;SDS011;11254;50.098;8.726;2023-08-17T14:11:15;5.03;;;2.85;;
22176;SDS011;11254;50.098;8.726;2023-08-17T14:13:50;5.53;;;2.90;;
22176;SDS011;11254;50.098;8.726;2023-08-17T14:16:19;4.57;;;2.30;;
22176;SDS011;11254;50.098;8.726;2023-08-17T14:18:57;5.20;;;2.53;;
22176;SDS011;11254;50.098;8.726;2023-08-17T14:21:25;4.22;;;2.67;;
22176;SDS011;11254;50.098;8.726;2023-08-17T14:23:55;5.55;;;3.13;;
22176;SDS011;11254;50.098;8.726;2023-08-17T14:26:26;5.88;;;2.92;;
22176;SDS011;11254;50.098;8.726;2023-08-17T14:29:00;6.05;;;2.42;;
22176;SDS011;11254;50.098;8.726;2023-08-17T14:31:31;5.93;;;2.58;;
22176;SDS011;11254;50.098;8.726;2023-08-17T14:34:00;5.47;;;2.78;;
22176;SDS011;11254;50.098;8.726;2023-08-17T14:36:32;4.13;;;2.45;;
22176;SDS011;11254;50.098;8.726;2023-08-17T14:39:03;5.25;;;2.53;;
22176;SDS011;11254;50.098;8.726;2023-08-17T14:41:32;7.05;;;2.80;;
22176;SDS011;11254;50.098;8.726;2023-08-17T14:44:04;4.03;;;2.25;;
22176;SDS011;11254;50.098;8.726;2023-08-17T14:46:32;3.80;;;2.35;;
22176;SDS011;11254;50.098;8.726;2023-08-17T14:49:01;4.28;;;2.25;;
22176;SDS011;11254;50.098;8.726;2023-08-17T14:51:29;4.60;;;2.42;;
22176;SDS011;11254;50.098;8.726;2023-08-17T14:53:58;3.83;;;2.40;;
22176;SDS011;11254;50.098;8.726;2023-08-17T14:56:27;5.18;;;2.38;;
22176;SDS011;11254;50.098;8.726;2023-08-17T14:58:56;4.28;;;2.22;;
22176;SDS011;11254;50.098;8.726;2023-08-17T15:01:27;3.80;;;2.25;;
22176;SDS011;11254;50.098;8.726;2023-08-17T15:03:58;3.75;;;2.33;;
22176;SDS011;11254;50.098;8.726;2023-08-17T15:06:27;4.95;;;2.67;;
22176;SDS011;11254;50.098;8.726;2023-08-17T15:09:00;8.27;;;3.00;;
22176;SDS011;11254;50.098;8.726;2023-08-17T15:11:31;4.60;;;3.00;;